Time;durP1;ratioP1;P1;durP2;ratioP2;P2;SDS_P1;SDS_P2;PMS_P1;PMS_P2;Temp;Humidity;BMP_temperature;BMP_pressure;BME280_temperature;BME280_humidity;BME280_pressure;Samples;Min_cycle;Max_cycle;Signal;HPM_P1;HPM_P2
2023/07/04 00:01:48;;;;;;;7.57;2.83;;;18.50;98.60;;;;;;4165998;28;20053;-59
2023/07/04 00:03:56;;;;;;;7.00;2.70;;;18.60;99.20;;;;;;4167133;28;20037;-60
2023/07/04 00:05:56;;;;;;;10.23;2.72;;;18.60;98.80;;;;;;4159480;28;20539;-59
2023/07/04 00:07:57;;;;;;;6.70;2.75;;;18.60;99.30;;;;;;4163538;28;20029;-60
2023/07/04 00:10:03;;;;;;;5.30;2.67;;;18.50;99.00;;;;;;4161031;28;20567;-59
2023/07/04 00:12:04;;;;;;;7.32;2.80;;;18.60;99.10;;;;;;4163046;28;20396;-59
2023/07/04 00:14:05;;;;;;;7.82;2.40;;;18.60;99.30;;;;;;4164621;28;20065;-61
2023/07/04 00:16:08;;;;;;;11.85;3.17;;;18.50;99.40;;;;;;4161753;28;20084;-60
2023/07/04 00:18:09;;;;;;;6.68;2.97;;;18.50;99.60;;;;;;4161498;28;20049;-59
2023/07/04 00:20:11;;;;;;;8.98;2.97;;;18.50;99.90;;;;;;4169496;28;20048;-60
2023/07/04 00:22:11;;;;;;;10.38;2.50;;;18.50;99.90;;;;;;4162134;28;20025;-59
2023/07/04 00:24:12;;;;;;;11.15;2.92;;;18.50;99.90;;;;;;4169722;28;20307;-60
2023/07/04 00:26:16;;;;;;;11.68;2.97;;;18.50;99.90;;;;;;4165692;28;20088;-59
2023/07/04 00:28:16;;;;;;;10.82;2.75;;;18.50;99.90;;;;;;4167177;28;20032;-59
2023/07/04 00:30:17;;;;;;;11.55;2.67;;;18.40;99.90;;;;;;4170301;28;20033;-59
2023/07/04 00:32:18;;;;;;;9.70;2.90;;;18.40;99.90;;;;;;4163962;28;20440;-59
2023/07/04 00:34:20;;;;;;;6.95;2.50;;;18.40;99.90;;;;;;4166026;28;20167;-59
2023/07/04 00:36:21;;;;;;;8.20;2.70;;;18.50;99.90;;;;;;4164259;28;20037;-60
2023/07/04 00:38:23;;;;;;;8.35;2.85;;;18.40;99.90;;;;;;4164045;28;20036;-59
2023/07/04 00:40:26;;;;;;;9.88;2.85;;;18.50;99.90;;;;;;4166065;28;20068;-59
2023/07/04 00:42:27;;;;;;;8.85;2.92;;;18.40;99.90;;;;;;4165480;28;20460;-60
2023/07/04 00:44:30;;;;;;;8.55;2.17;;;18.40;99.90;;;;;;4168773;28;20041;-60
2023/07/04 00:47:06;;;;;;;7.75;3.20;;;18.40;99.90;;;;;;4166563;28;20472;-59
2023/07/04 00:49:37;;;;;;;7.05;2.42;;;18.40;99.90;;;;;;4165597;28;20053;-60
2023/07/04 00:51:38;;;;;;;8.43;2.88;;;18.40;99.90;;;;;;4147485;28;20038;-60
2023/07/04 00:53:38;;;;;;;13.73;3.00;;;18.40;99.90;;;;;;4167370;28;20373;-59
2023/07/04 00:55:43;;;;;;;7.43;2.45;;;18.40;99.90;;;;;;4165612;28;20074;-59
2023/07/04 00:57:47;;;;;;;7.10;2.78;;;18.40;99.90;;;;;;4170735;28;20033;-59
2023/07/04 00:59:52;;;;;;;7.00;2.60;;;18.40;99.90;;;;;;4167495;28;20537;-59
2023/07/04 01:01:56;;;;;;;8.70;2.67;;;18.40;99.90;;;;;;4167021;28;20086;-59
2023/07/04 01:03:58;;;;;;;6.13;2.40;;;18.40;99.90;;;;;;4151439;28;20202;-60
2023/07/04 01:06:09;;;;;;;13.70;3.25;;;18.40;99.90;;;;;;4160211;28;20442;-60
2023/07/04 01:08:18;;;;;;;14.45;2.97;;;18.40;99.90;;;;;;4155149;28;20179;-59
2023/07/04 01:10:28;;;;;;;10.40;2.70;;;18.30;99.90;;;;;;4164133;28;20418;-59
2023/07/04 01:12:30;;;;;;;8.40;2.72;;;18.40;99.90;;;;;;4166558;28;20037;-59
2023/07/04 01:14:31;;;;;;;7.63;2.50;;;18.30;99.90;;;;;;4171318;28;20053;-59
2023/07/04 01:16:31;;;;;;;8.65;2.67;;;18.30;99.90;;;;;;4161392;28;20275;-59
2023/07/04 01:18:32;;;;;;;8.20;2.65;;;18.30;99.90;;;;;;4166083;28;20037;-59
2023/07/04 01:20:33;;;;;;;8.48;2.63;;;18.40;99.90;;;;;;4167747;28;20021;-59
2023/07/04 01:22:59;;;;;;;13.77;3.08;;;18.40;99.90;;;;;;4166724;28;20357;-59
2023/07/04 01:25:20;;;;;;;8.35;2.70;;;18.30;99.90;;;;;;4165962;28;20128;-60
2023/07/04 01:27:22;;;;;;;9.68;2.45;;;18.20;99.90;;;;;;4156381;28;20490;-59
2023/07/04 01:29:22;;;;;;;8.90;2.40;;;18.20;99.90;;;;;;4152160;28;20116;-59
2023/07/04 01:31:25;;;;;;;11.10;3.40;;;18.20;99.90;;;;;;4151080;28;20272;-59
2023/07/04 01:33:26;;;;;;;8.45;2.97;;;18.20;99.90;;;;;;4151889;28;20092;-59
2023/07/04 01:35:28;;;;;;;11.75;3.22;;;18.10;99.90;;;;;;4163408;28;20051;-60
2023/07/04 01:37:30;;;;;;;10.65;2.90;;;18.10;99.90;;;;;;4156712;28;20045;-59
2023/07/04 01:39:30;;;;;;;9.30;2.58;;;18.00;99.90;;;;;;4159635;28;20119;-59
2023/07/04 01:41:32;;;;;;;10.65;3.22;;;17.90;99.90;;;;;;4160761;28;20037;-59
2023/07/04 01:43:32;;;;;;;7.28;2.65;;;17.90;99.90;;;;;;4158989;28;20029;-59
2023/07/04 01:45:33;;;;;;;6.63;2.53;;;17.90;99.90;;;;;;4162115;28;20048;-60
2023/07/04 01:47:35;;;;;;;7.65;2.63;;;17.90;99.90;;;;;;4151590;28;20459;-59
2023/07/04 01:49:36;;;;;;;7.15;2.60;;;17.90;99.90;;;;;;4158675;28;20156;-60
2023/07/04 01:51:39;;;;;;;9.98;2.78;;;17.90;99.90;;;;;;4158183;28;20134;-60
2023/07/04 01:53:40;;;;;;;7.50;2.20;;;17.90;99.90;;;;;;4163859;28;20036;-59
2023/07/04 01:55:40;;;;;;;13.90;3.38;;;17.90;99.90;;;;;;4161965;28;20103;-59
2023/07/04 01:57:41;;;;;;;7.97;2.63;;;17.80;99.90;;;;;;4169810;28;20102;-59
2023/07/04 01:59:42;;;;;;;7.97;2.63;;;17.80;99.90;;;;;;4165221;28;20553;-59
2023/07/04 02:01:43;;;;;;;9.15;2.45;;;17.80;99.90;;;;;;4168179;28;20033;-59
2023/07/04 02:03:43;;;;;;;6.43;2.35;;;17.80;99.90;;;;;;4153166;28;20108;-59
2023/07/04 02:05:44;;;;;;;10.48;3.65;;;17.80;99.90;;;;;;4157952;28;20049;-59
2023/07/04 02:07:45;;;;;;;7.32;2.60;;;17.80;99.90;;;;;;4165685;28;20096;-59
2023/07/04 02:09:45;;;;;;;10.77;2.85;;;17.80;99.90;;;;;;4163220;28;20443;-59
2023/07/04 02:11:46;;;;;;;6.82;2.72;;;17.80;99.90;;;;;;4163464;28;20107;-59
2023/07/04 02:13:47;;;;;;;7.20;2.53;;;17.80;99.90;;;;;;4144248;28;20076;-59
2023/07/04 02:15:48;;;;;;;9.50;2.78;;;17.70;99.90;;;;;;4168131;28;20473;-59
2023/07/04 02:17:48;;;;;;;9.48;2.67;;;17.70;99.90;;;;;;4167290;28;20041;-59
2023/07/04 02:19:49;;;;;;;14.02;3.20;;;17.70;99.90;;;;;;4165599;28;20029;-59
2023/07/04 02:21:49;;;;;;;6.55;2.42;;;17.70;99.90;;;;;;4159053;28;20113;-59
2023/07/04 02:23:50;;;;;;;8.43;2.95;;;17.70;99.90;;;;;;4159934;28;20116;-59
2023/07/04 02:25:53;;;;;;;8.40;3.03;;;17.70;99.90;;;;;;4160840;28;20090;-59
2023/07/04 02:27:53;;;;;;;12.20;3.22;;;17.60;99.90;;;;;;4164423;28;20037;-59
2023/07/04 02:29:54;;;;;;;12.02;2.95;;;17.60;99.90;;;;;;4166853;28;20035;-59
2023/07/04 02:31:55;;;;;;;13.65;3.15;;;17.60;99.90;;;;;;4165960;28;20039;-59
2023/07/04 02:33:55;;;;;;;11.93;3.78;;;17.40;99.90;;;;;;4158089;28;20436;-59
2023/07/04 02:35:56;;;;;;;9.93;3.13;;;17.40;99.90;;;;;;4137145;28;20113;-63
2023/07/04 02:37:57;;;;;;;11.32;3.17;;;17.40;99.90;;;;;;4161532;28;20087;-60
2023/07/04 02:39:57;;;;;;;10.38;3.30;;;17.40;99.90;;;;;;4168084;28;20033;-60
2023/07/04 02:41:58;;;;;;;11.63;3.10;;;17.40;99.90;;;;;;4164865;28;20033;-60
2023/07/04 02:43:59;;;;;;;8.30;2.97;;;17.40;99.90;;;;;;4164316;28;20035;-60
2023/07/04 02:46:00;;;;;;;13.25;3.60;;;17.40;99.90;;;;;;4148543;28;20034;-59
2023/07/04 02:48:00;;;;;;;6.78;2.65;;;17.30;99.90;;;;;;4166843;28;20125;-59
2023/07/04 02:50:01;;;;;;;11.13;3.38;;;17.30;99.90;;;;;;4161757;28;20030;-59
2023/07/04 02:52:02;;;;;;;8.25;2.63;;;17.30;99.90;;;;;;4162550;28;20037;-60
2023/07/04 02:54:03;;;;;;;11.32;3.03;;;17.30;99.90;;;;;;4163644;28;20118;-60
2023/07/04 02:56:03;;;;;;;11.55;3.25;;;17.30;99.90;;;;;;4163003;28;20029;-59
2023/07/04 02:58:04;;;;;;;12.52;3.05;;;17.30;99.90;;;;;;4167201;28;20033;-59
2023/07/04 03:00:05;;;;;;;15.73;3.65;;;17.30;99.90;;;;;;4160505;28;20491;-59
2023/07/04 03:02:06;;;;;;;11.98;2.83;;;17.30;99.90;;;;;;4150547;28;20041;-60
2023/07/04 03:04:06;;;;;;;11.05;3.08;;;17.10;99.90;;;;;;4144088;28;20101;-59
2023/07/04 03:06:07;;;;;;;10.25;3.05;;;17.20;99.90;;;;;;4154141;28;20125;-59
2023/07/04 03:08:08;;;;;;;13.68;3.28;;;17.20;99.90;;;;;;4163942;28;20048;-59
2023/07/04 03:10:09;;;;;;;14.00;3.08;;;17.20;99.90;;;;;;4164636;28;20052;-64
2023/07/04 03:12:10;;;;;;;13.48;2.90;;;17.10;99.90;;;;;;4164579;28;20064;-59
2023/07/04 03:14:10;;;;;;;15.98;3.80;;;17.10;99.90;;;;;;4168692;28;20029;-59
2023/07/04 03:16:11;;;;;;;8.18;3.00;;;17.10;99.90;;;;;;4161822;28;20033;-60
2023/07/04 03:18:11;;;;;;;14.63;3.63;;;17.10;99.90;;;;;;4159934;28;20401;-59
2023/07/04 03:20:12;;;;;;;9.93;3.83;;;17.10;99.90;;;;;;4161442;28;20411;-59
2023/07/04 03:22:13;;;;;;;13.63;3.90;;;17.10;99.90;;;;;;4164671;28;20108;-59
2023/07/04 03:24:13;;;;;;;13.20;3.80;;;17.00;99.90;;;;;;4162646;28;20033;-59
2023/07/04 03:26:14;;;;;;;15.43;3.75;;;17.00;99.90;;;;;;4153304;28;20464;-59
2023/07/04 03:28:14;;;;;;;11.15;3.38;;;17.00;99.90;;;;;;4165918;28;20041;-59
2023/07/04 03:30:15;;;;;;;16.35;3.40;;;17.00;99.90;;;;;;4163905;28;20025;-60
2023/07/04 03:32:16;;;;;;;12.57;3.25;;;17.00;99.90;;;;;;4164572;28;20962;-59
2023/07/04 03:34:16;;;;;;;7.95;2.53;;;17.00;99.90;;;;;;4167042;28;20057;-59
2023/07/04 03:36:17;;;;;;;11.90;3.22;;;17.00;99.90;;;;;;4155466;28;20044;-59
2023/07/04 03:38:17;;;;;;;14.98;3.88;;;17.00;99.90;;;;;;4164543;28;20037;-59
2023/07/04 03:40:18;;;;;;;12.65;2.92;;;17.00;99.90;;;;;;4164358;28;20376;-59
2023/07/04 03:42:19;;;;;;;13.13;3.88;;;17.00;99.90;;;;;;4151085;28;20025;-59
2023/07/04 03:44:20;;;;;;;11.25;3.22;;;17.00;99.90;;;;;;4164879;28;20033;-58
2023/07/04 03:46:21;;;;;;;11.93;3.17;;;17.00;99.90;;;;;;4166701;28;20021;-59
2023/07/04 03:48:23;;;;;;;14.75;3.25;;;17.00;99.90;;;;;;4160673;28;20095;-59
2023/07/04 03:50:23;;;;;;;10.55;3.08;;;17.00;99.90;;;;;;4162087;28;20620;-59
2023/07/04 03:52:24;;;;;;;12.82;3.53;;;17.00;99.90;;;;;;4157088;28;20086;-59
2023/07/04 03:54:25;;;;;;;7.55;2.90;;;17.00;99.90;;;;;;4170120;28;20477;-59
2023/07/04 03:56:25;;;;;;;12.02;3.20;;;17.00;99.90;;;;;;4162336;28;20393;-59
2023/07/04 03:58:26;;;;;;;8.95;2.90;;;16.90;99.90;;;;;;4161014;28;20044;-59
2023/07/04 04:00:26;;;;;;;9.77;2.90;;;16.90;99.90;;;;;;4169187;28;20373;-62
2023/07/04 04:02:27;;;;;;;9.07;3.28;;;17.00;99.90;;;;;;4164386;28;21122;-59
2023/07/04 04:04:27;;;;;;;7.90;2.67;;;17.00;99.90;;;;;;4172093;28;20044;-59
2023/07/04 04:06:28;;;;;;;11.75;3.88;;;16.90;99.90;;;;;;4163916;28;20053;-59
2023/07/04 04:08:28;;;;;;;8.18;2.78;;;16.90;99.90;;;;;;4168434;28;20041;-59
2023/07/04 04:10:29;;;;;;;11.90;3.33;;;17.00;99.90;;;;;;4160429;28;20037;-59
2023/07/04 04:12:30;;;;;;;10.98;3.33;;;17.00;99.90;;;;;;4168748;28;20033;-59
2023/07/04 04:14:32;;;;;;;12.63;3.67;;;17.00;99.90;;;;;;4165963;28;20361;-59
2023/07/04 04:16:33;;;;;;;12.32;3.30;;;17.10;99.90;;;;;;4165196;28;20026;-59
2023/07/04 04:18:33;;;;;;;12.50;3.33;;;17.00;99.90;;;;;;4166656;28;20356;-59
2023/07/04 04:20:34;;;;;;;17.48;3.22;;;17.00;99.90;;;;;;4162836;28;20037;-59
2023/07/04 04:22:34;;;;;;;8.85;3.30;;;17.00;99.90;;;;;;4154202;28;20493;-59
2023/07/04 04:24:37;;;;;;;8.40;2.88;;;17.00;99.90;;;;;;4170007;28;20492;-59
2023/07/04 04:26:39;;;;;;;8.30;2.80;;;17.00;99.90;;;;;;4150499;28;20477;-61
2023/07/04 04:28:40;;;;;;;8.13;3.00;;;17.00;99.90;;;;;;4137960;28;20030;-60
2023/07/04 04:30:41;;;;;;;11.65;2.80;;;17.00;99.90;;;;;;4153066;28;20563;-59
2023/07/04 04:32:41;;;;;;;14.45;3.78;;;17.00;99.90;;;;;;4152832;28;20030;-60
2023/07/04 04:34:42;;;;;;;13.38;2.83;;;17.10;99.90;;;;;;4171176;28;20481;-59
2023/07/04 04:36:43;;;;;;;11.60;2.88;;;17.00;99.90;;;;;;4176325;28;20033;-59
2023/07/04 04:38:43;;;;;;;8.48;3.25;;;17.00;99.90;;;;;;4177133;28;20047;-59
2023/07/04 04:40:44;;;;;;;11.38;3.33;;;17.00;99.90;;;;;;4175705;28;20036;-59
2023/07/04 04:42:45;;;;;;;15.10;3.72;;;17.00;99.90;;;;;;4177564;28;20060;-59
2023/07/04 04:44:45;;;;;;;10.40;3.33;;;17.00;99.90;;;;;;4178154;28;20511;-59
2023/07/04 04:46:48;;;;;;;9.50;2.88;;;17.00;99.90;;;;;;4156656;28;20045;-59
2023/07/04 04:48:50;;;;;;;13.02;3.53;;;17.00;99.90;;;;;;4172255;28;20112;-59
2023/07/04 04:50:53;;;;;;;12.93;3.30;;;17.00;99.90;;;;;;4175829;28;20155;-59
2023/07/04 04:52:53;;;;;;;10.98;3.03;;;17.00;99.90;;;;;;4177918;28;20112;-59
2023/07/04 04:54:54;;;;;;;11.07;3.53;;;17.10;99.90;;;;;;4175660;28;20083;-59
2023/07/04 04:56:54;;;;;;;10.05;3.25;;;17.10;99.90;;;;;;4175334;28;20074;-59
2023/07/04 04:58:56;;;;;;;16.02;3.45;;;17.10;99.90;;;;;;4174475;28;20056;-59
2023/07/04 05:00:56;;;;;;;11.48;3.35;;;17.10;99.90;;;;;;4174063;28;20044;-60
2023/07/04 05:02:57;;;;;;;10.23;2.85;;;17.10;99.90;;;;;;4175970;28;20480;-62
2023/07/04 05:05:01;;;;;;;11.35;2.78;;;17.20;99.90;;;;;;4177332;28;20041;-60
2023/07/04 05:07:01;;;;;;;11.77;3.03;;;17.20;99.90;;;;;;4176569;28;20044;-59
2023/07/04 05:09:02;;;;;;;8.10;2.88;;;17.20;99.90;;;;;;4175922;28;20021;-59
2023/07/04 05:11:06;;;;;;;10.93;3.40;;;17.20;99.90;;;;;;4175554;28;20038;-59
2023/07/04 05:13:06;;;;;;;10.07;3.03;;;17.20;99.90;;;;;;4176046;28;20025;-59
2023/07/04 05:15:08;;;;;;;14.85;3.75;;;17.30;99.90;;;;;;4175757;28;20557;-60
2023/07/04 05:17:09;;;;;;;13.50;3.50;;;17.20;99.90;;;;;;4173296;28;20396;-60
2023/07/04 05:19:09;;;;;;;10.55;3.30;;;17.20;99.90;;;;;;4174968;28;20037;-59
2023/07/04 05:21:13;;;;;;;9.90;2.95;;;17.30;99.90;;;;;;4176198;28;20032;-59
2023/07/04 05:23:13;;;;;;;16.23;3.90;;;17.30;99.90;;;;;;4171085;28;20480;-60
2023/07/04 05:25:14;;;;;;;15.93;3.75;;;17.30;99.90;;;;;;4172777;28;20152;-59
2023/07/04 05:27:16;;;;;;;16.27;4.57;;;17.30;99.90;;;;;;4176424;28;20392;-59
2023/07/04 05:29:16;;;;;;;14.57;3.33;;;17.20;99.90;;;;;;4167126;28;20029;-59
2023/07/04 05:31:19;;;;;;;18.77;4.10;;;17.20;99.90;;;;;;4175129;28;20496;-59
2023/07/04 05:33:19;;;;;;;10.55;3.25;;;17.20;99.90;;;;;;4171393;28;20125;-59
2023/07/04 05:35:20;;;;;;;10.48;3.63;;;17.20;99.90;;;;;;4172094;28;20037;-59
2023/07/04 05:37:20;;;;;;;11.95;3.58;;;17.20;99.90;;;;;;4175705;28;20029;-59
2023/07/04 05:39:21;;;;;;;15.05;4.30;;;17.20;99.90;;;;;;4172363;28;20025;-59
2023/07/04 05:41:27;;;;;;;13.65;3.67;;;17.30;99.90;;;;;;4175274;28;20041;-59
2023/07/04 05:43:28;;;;;;;11.98;3.58;;;17.30;99.90;;;;;;4173482;28;20079;-59
2023/07/04 05:45:28;;;;;;;12.32;3.47;;;17.40;99.90;;;;;;4173776;28;20040;-60
2023/07/04 05:47:29;;;;;;;14.35;3.60;;;17.40;99.90;;;;;;4173931;28;20048;-59
2023/07/04 05:49:29;;;;;;;19.35;4.05;;;17.30;99.90;;;;;;4173770;28;20500;-59
2023/07/04 05:51:31;;;;;;;10.40;3.47;;;17.30;99.90;;;;;;4174998;28;20372;-62
2023/07/04 05:53:34;;;;;;;10.93;3.65;;;17.40;99.90;;;;;;4171244;28;20060;-64
2023/07/04 05:55:35;;;;;;;13.27;3.95;;;17.40;99.90;;;;;;4162305;28;20033;-61
2023/07/04 05:57:35;;;;;;;14.20;4.55;;;17.40;99.90;;;;;;4174386;28;20040;-61
2023/07/04 05:59:36;;;;;;;14.13;3.67;;;17.40;99.90;;;;;;4167961;28;20057;-61
2023/07/04 06:01:44;;;;;;;11.38;3.47;;;17.50;99.90;;;;;;4173993;28;20029;-61
2023/07/04 06:03:45;;;;;;;14.73;3.10;;;17.60;99.90;;;;;;4174289;28;20488;-61
2023/07/04 06:05:45;;;;;;;14.65;3.58;;;17.80;99.90;;;;;;4175767;28;20032;-61
2023/07/04 06:07:46;;;;;;;16.42;4.30;;;18.00;99.90;;;;;;4174463;28;20048;-62
2023/07/04 06:09:47;;;;;;;13.70;3.63;;;18.20;99.90;;;;;;4174153;28;20053;-62
2023/07/04 06:11:48;;;;;;;9.77;3.10;;;18.50;99.90;;;;;;4175396;28;20116;-62
2023/07/04 06:13:49;;;;;;;15.65;3.83;;;18.60;99.90;;;;;;4174384;28;20029;-62
2023/07/04 06:15:49;;;;;;;13.07;3.42;;;18.80;99.90;;;;;;4172223;28;20052;-61
2023/07/04 06:17:50;;;;;;;11.35;3.63;;;18.90;99.90;;;;;;4172882;28;20045;-62
2023/07/04 06:19:50;;;;;;;17.55;4.25;;;19.00;99.90;;;;;;4175996;28;20098;-62
2023/07/04 06:21:51;;;;;;;15.07;4.50;;;19.00;99.90;;;;;;4173695;28;20029;-62
2023/07/04 06:23:55;;;;;;;11.02;3.50;;;19.00;99.90;;;;;;4176008;28;20445;-62
2023/07/04 06:25:56;;;;;;;15.18;3.78;;;19.10;99.90;;;;;;4171966;28;20047;-62
2023/07/04 06:27:57;;;;;;;8.48;3.20;;;19.20;99.90;;;;;;4146782;28;20037;-62
2023/07/04 06:29:57;;;;;;;12.40;3.75;;;19.30;99.90;;;;;;4147156;28;20740;-64
2023/07/04 06:31:58;;;;;;;16.63;4.63;;;19.40;99.90;;;;;;4166189;28;20044;-63
2023/07/04 06:34:00;;;;;;;13.68;3.97;;;19.30;99.90;;;;;;4174053;28;20044;-62
2023/07/04 06:36:00;;;;;;;11.15;4.20;;;19.20;99.90;;;;;;4173348;28;20028;-62
2023/07/04 06:38:01;;;;;;;13.82;3.53;;;19.30;99.90;;;;;;4166972;28;20065;-62
2023/07/04 06:40:02;;;;;;;14.57;3.70;;;19.40;99.90;;;;;;4173400;28;20120;-65
2023/07/04 06:42:03;;;;;;;13.80;4.00;;;19.40;99.90;;;;;;4156900;28;20501;-62
2023/07/04 06:44:05;;;;;;;12.85;3.55;;;19.40;99.90;;;;;;4174670;28;20029;-62
2023/07/04 06:46:06;;;;;;;10.53;3.17;;;19.50;99.90;;;;;;4173902;28;20399;-62
2023/07/04 06:48:06;;;;;;;13.88;3.92;;;19.60;99.90;;;;;;4171579;28;20263;-63
2023/07/04 06:50:07;;;;;;;13.48;3.85;;;19.70;99.90;;;;;;4157658;28;20036;-62
2023/07/04 06:52:08;;;;;;;15.48;4.10;;;19.60;99.90;;;;;;4175261;28;20028;-63
2023/07/04 06:54:09;;;;;;;10.45;3.65;;;19.60;99.90;;;;;;4152650;28;20101;-62
2023/07/04 06:56:12;;;;;;;11.13;3.92;;;19.70;99.90;;;;;;4174250;28;20040;-62
2023/07/04 06:58:15;;;;;;;10.60;3.42;;;19.70;99.90;;;;;;4173256;28;20033;-63
2023/07/04 07:00:16;;;;;;;9.23;3.50;;;19.80;99.90;;;;;;4170441;28;20102;-62
2023/07/04 07:02:16;;;;;;;13.32;3.95;;;20.00;99.90;;;;;;4175846;28;20041;-62
2023/07/04 07:04:17;;;;;;;10.95;3.28;;;20.00;99.90;;;;;;4173436;28;20408;-62
2023/07/04 07:06:18;;;;;;;13.10;3.58;;;20.10;99.90;;;;;;4171287;28;20034;-62
2023/07/04 07:08:18;;;;;;;10.90;3.33;;;20.10;99.90;;;;;;4169981;28;20053;-62
2023/07/04 07:10:19;;;;;;;11.52;3.38;;;20.00;99.90;;;;;;4171921;28;20044;-62
2023/07/04 07:12:19;;;;;;;8.55;3.17;;;20.00;99.90;;;;;;4173320;28;20094;-62
2023/07/04 07:14:20;;;;;;;13.00;3.28;;;20.10;99.90;;;;;;4163627;28;20041;-63
2023/07/04 07:16:23;;;;;;;13.35;3.22;;;20.30;99.90;;;;;;4173328;28;20052;-62
2023/07/04 07:18:23;;;;;;;7.65;2.78;;;20.20;99.90;;;;;;4172802;28;20051;-63
2023/07/04 07:20:24;;;;;;;9.90;3.15;;;20.30;99.90;;;;;;4173611;28;20029;-63
2023/07/04 07:22:25;;;;;;;14.05;2.95;;;20.20;99.90;;;;;;4174537;28;20036;-62
2023/07/04 07:24:25;;;;;;;12.73;3.67;;;20.20;99.90;;;;;;4176832;28;20035;-62
2023/07/04 07:26:27;;;;;;;10.70;3.28;;;20.20;99.90;;;;;;4175702;28;20025;-62
2023/07/04 07:28:29;;;;;;;10.60;2.92;;;20.10;99.90;;;;;;4172233;28;20025;-67
2023/07/04 07:30:30;;;;;;;;;;;20.10;99.90;;;;;;4176482;28;20049;-63
2023/07/04 07:32:31;;;;;;;8.10;2.78;;;20.20;99.90;;;;;;4179832;28;19913;-63
2023/07/04 07:34:31;;;;;;;14.65;3.58;;;20.30;99.90;;;;;;4176601;28;20057;-62
2023/07/04 07:36:37;;;;;;;14.52;3.83;;;20.30;99.90;;;;;;4176213;28;20040;-62
2023/07/04 07:38:38;;;;;;;9.82;3.00;;;20.30;99.90;;;;;;4177173;28;20068;-62
2023/07/04 07:40:39;;;;;;;12.77;3.42;;;20.30;99.90;;;;;;4178444;28;20120;-62
2023/07/04 07:42:40;;;;;;;9.55;2.70;;;20.20;99.90;;;;;;4179685;28;20057;-62
2023/07/04 07:44:41;;;;;;;12.15;3.15;;;20.30;99.90;;;;;;4175373;28;20504;-62
2023/07/04 07:46:43;;;;;;;15.05;3.90;;;20.20;99.90;;;;;;4158378;28;20029;-65
2023/07/04 07:48:45;;;;;;;11.13;3.00;;;20.30;99.90;;;;;;4173692;28;20086;-63
2023/07/04 07:50:45;;;;;;;10.35;3.42;;;20.20;99.90;;;;;;4176483;28;20083;-62
2023/07/04 07:52:46;;;;;;;10.48;3.03;;;20.20;99.90;;;;;;4176116;28;21092;-62
2023/07/04 07:54:46;;;;;;;7.00;2.40;;;20.30;99.90;;;;;;4177559;28;20037;-62
2023/07/04 07:56:48;;;;;;;7.80;2.88;;;20.40;99.90;;;;;;4178161;28;20037;-62
2023/07/04 07:58:49;;;;;;;6.53;2.22;;;20.40;99.90;;;;;;4175477;28;20048;-62
2023/07/04 08:00:50;;;;;;;8.18;3.00;;;20.50;99.90;;;;;;4176513;28;20484;-62
2023/07/04 08:02:51;;;;;;;8.65;2.53;;;20.50;99.90;;;;;;4176204;28;20029;-62
2023/07/04 08:04:51;;;;;;;12.15;3.10;;;20.50;99.90;;;;;;4174408;28;20389;-63
2023/07/04 08:06:52;;;;;;;10.93;2.97;;;20.50;99.90;;;;;;4175238;28;20222;-62
2023/07/04 08:08:55;;;;;;;10.60;2.70;;;20.60;99.90;;;;;;4176618;28;20036;-62
2023/07/04 08:10:55;;;;;;;9.95;3.08;;;20.70;99.90;;;;;;4155616;28;20368;-62
2023/07/04 08:12:56;;;;;;;5.70;2.05;;;20.70;99.90;;;;;;4176349;28;20029;-62
2023/07/04 08:14:56;;;;;;;9.00;2.60;;;20.90;99.90;;;;;;4174721;28;20036;-62
2023/07/04 08:16:57;;;;;;;7.25;1.95;;;20.90;99.90;;;;;;4174148;28;20485;-62
2023/07/04 08:18:59;;;;;;;9.93;2.45;;;20.90;99.90;;;;;;4174627;28;20060;-67
2023/07/04 08:21:03;;;;;;;7.68;2.40;;;21.00;99.90;;;;;;4173982;28;20491;-63
2023/07/04 08:23:04;;;;;;;8.35;2.63;;;21.00;99.20;;;;;;4177698;28;20550;-63
2023/07/04 08:25:05;;;;;;;9.35;2.88;;;20.90;99.00;;;;;;4176646;28;20033;-64
2023/07/04 08:27:06;;;;;;;11.30;2.83;;;20.90;99.60;;;;;;4176854;28;20098;-62
2023/07/04 08:29:07;;;;;;;9.75;2.78;;;20.90;99.90;;;;;;4174804;28;20508;-62
2023/07/04 08:31:09;;;;;;;9.40;2.47;;;21.00;99.00;;;;;;4175909;28;20045;-62
2023/07/04 08:33:10;;;;;;;9.07;2.30;;;21.10;97.50;;;;;;4157828;28;20041;-62
2023/07/04 08:35:10;;;;;;;6.85;2.45;;;21.10;98.20;;;;;;4172512;28;20133;-64
2023/07/04 08:37:12;;;;;;;10.60;3.03;;;21.20;98.70;;;;;;4175740;28;20032;-62
2023/07/04 08:39:13;;;;;;;5.40;2.00;;;21.30;97.80;;;;;;4175049;28;20119;-63
2023/07/04 08:41:57;;;;;;;9.52;2.50;;;21.40;99.10;;;;;;4173569;28;20279;-62
2023/07/04 08:44:01;;;;;;;9.80;2.45;;;21.50;97.60;;;;;;4174262;28;20526;-65
2023/07/04 08:46:06;;;;;;;8.90;2.42;;;21.60;98.60;;;;;;4174031;28;20167;-62
2023/07/04 08:48:07;;;;;;;9.82;2.67;;;21.60;96.50;;;;;;4172657;28;20083;-62
2023/07/04 08:50:19;;;;;;;7.72;2.13;;;21.60;95.90;;;;;;4175315;28;20029;-64
2023/07/04 08:52:46;;;;;;;5.75;2.15;;;21.60;96.00;;;;;;4173188;28;20110;-63
2023/07/04 08:54:47;;;;;;;6.45;2.30;;;21.60;95.60;;;;;;4175730;28;20082;-62
2023/07/04 08:56:50;;;;;;;10.07;2.70;;;21.60;96.40;;;;;;4171180;28;21654;-62
2023/07/04 08:58:59;;;;;;;;;;;21.60;97.00;;;;;;4171960;28;20055;-62
2023/07/04 09:01:09;;;;;;;6.53;2.50;;;21.70;97.60;;;;;;4174890;28;19908;-62
2023/07/04 09:03:52;;;;;;;3.15;1.40;;;21.70;96.80;;;;;;4173544;28;20087;-63
2023/07/04 09:06:02;;;;;;;6.60;2.47;;;21.80;96.70;;;;;;4174395;28;20035;-62
2023/07/04 09:08:14;;;;;;;9.20;2.78;;;21.80;96.80;;;;;;4173817;28;20037;-62
2023/07/04 09:10:29;;;;;;;7.57;2.45;;;21.70;96.20;;;;;;4174747;28;20029;-63
2023/07/04 09:12:34;;;;;;;8.63;2.75;;;21.70;96.10;;;;;;4172305;28;20037;-63
2023/07/04 09:15:00;;;;;;;7.35;2.13;;;21.70;95.00;;;;;;4176474;28;20162;-62
2023/07/04 09:17:14;;;;;;;8.73;2.80;;;21.70;94.90;;;;;;4173147;28;20036;-63
2023/07/04 09:19:19;;;;;;;7.35;2.42;;;21.60;95.20;;;;;;4170967;28;20037;-63
2023/07/04 09:21:21;;;;;;;6.15;1.98;;;21.70;96.60;;;;;;4154644;28;20113;-62
2023/07/04 09:23:23;;;;;;;5.85;2.22;;;21.80;96.40;;;;;;4156311;28;20025;-62
2023/07/04 09:25:24;;;;;;;11.73;2.60;;;21.80;95.80;;;;;;4154355;28;20042;-62
2023/07/04 09:27:29;;;;;;;9.65;2.60;;;21.90;96.30;;;;;;4175145;28;20033;-62
2023/07/04 09:29:30;;;;;;;6.00;2.03;;;21.90;94.90;;;;;;4166990;28;20121;-63
2023/07/04 09:31:41;;;;;;;9.38;2.10;;;22.00;94.10;;;;;;4173929;28;20036;-62
2023/07/04 09:33:44;;;;;;;7.03;2.20;;;22.00;95.40;;;;;;4171113;28;20046;-62
2023/07/04 09:35:46;;;;;;;6.75;2.15;;;22.10;95.10;;;;;;4174241;28;20536;-63
2023/07/04 09:37:56;;;;;;;9.70;2.72;;;22.10;95.20;;;;;;4174276;28;20514;-63
2023/07/04 09:40:00;;;;;;;8.52;2.08;;;22.00;94.10;;;;;;4175460;28;20033;-62
2023/07/04 09:42:00;;;;;;;7.95;2.80;;;22.10;95.20;;;;;;4176774;28;20039;-63
2023/07/04 09:44:19;;;;;;;7.57;2.30;;;22.10;93.70;;;;;;4172763;28;20039;-62
2023/07/04 09:46:26;;;;;;;8.73;2.45;;;22.20;95.20;;;;;;4161796;28;20381;-62
2023/07/04 09:48:27;;;;;;;4.90;1.60;;;22.20;95.60;;;;;;4164629;28;20032;-62
2023/07/04 09:50:33;;;;;;;6.22;2.13;;;22.30;94.90;;;;;;4154955;28;20033;-63
2023/07/04 09:52:33;;;;;;;7.90;2.25;;;22.20;93.80;;;;;;4174520;28;20575;-63
2023/07/04 09:54:36;;;;;;;8.10;2.72;;;22.20;93.30;;;;;;4176200;28;20037;-62
2023/07/04 09:56:37;;;;;;;4.38;2.00;;;22.30;93.70;;;;;;4176050;28;20396;-62
2023/07/04 09:58:38;;;;;;;6.72;2.30;;;22.30;93.50;;;;;;4174555;28;20037;-63
2023/07/04 10:00:38;;;;;;;9.02;2.45;;;22.30;93.20;;;;;;4175941;28;20172;-63
2023/07/04 10:02:39;;;;;;;7.72;2.30;;;22.40;92.60;;;;;;4158958;28;20056;-63
2023/07/04 10:04:40;;;;;;;5.75;2.03;;;22.40;92.70;;;;;;4175212;28;20028;-62
2023/07/04 10:06:43;;;;;;;8.60;2.20;;;22.40;92.80;;;;;;4176023;28;20029;-63
2023/07/04 10:08:53;;;;;;;5.55;1.90;;;22.40;94.00;;;;;;4168039;28;20489;-67
2023/07/04 10:10:57;;;;;;;4.53;2.15;;;22.60;94.90;;;;;;4147034;28;20037;-63
2023/07/04 10:12:58;;;;;;;7.60;2.25;;;22.70;92.90;;;;;;4153425;28;20064;-67
2023/07/04 10:15:00;;;;;;;6.93;2.38;;;22.70;92.80;;;;;;4165180;28;20485;-63
2023/07/04 10:17:10;;;;;;;6.72;1.83;;;22.70;92.00;;;;;;4150108;28;20415;-63
2023/07/04 10:19:18;;;;;;;8.68;2.35;;;22.60;93.40;;;;;;4153269;28;21648;-62
2023/07/04 10:21:19;;;;;;;6.65;2.50;;;22.60;92.10;;;;;;4166864;28;20025;-63
2023/07/04 10:23:21;;;;;;;6.00;2.40;;;22.70;92.70;;;;;;4169619;28;20484;-63
2023/07/04 10:25:22;;;;;;;7.97;2.50;;;22.80;92.20;;;;;;4160992;28;20501;-62
2023/07/04 10:27:31;;;;;;;8.18;2.20;;;22.70;91.40;;;;;;4166675;28;20397;-63
2023/07/04 10:29:36;;;;;;;7.03;3.25;;;22.70;92.70;;;;;;4162411;28;20116;-63
2023/07/04 10:31:37;;;;;;;8.15;2.47;;;22.70;91.40;;;;;;4161363;28;20049;-63
2023/07/04 10:33:50;;;;;;;6.97;2.20;;;22.70;90.30;;;;;;4166860;28;20045;-63
2023/07/04 10:35:51;;;;;;;5.75;1.75;;;22.70;91.20;;;;;;4168241;28;20029;-63